Time;durP1;ratioP1;P1;durP2;ratioP2;P2;SDS_P1;SDS_P2;PMS_P1;PMS_P2;Temp;Humidity;BMP_temperature;BMP_pressure;BME280_temperature;BME280_humidity;BME280_pressure;Samples;Min_cycle;Max_cycle;Signal;HPM_P1;HPM_P2
2023/08/19 00:01:32;;;;;;;6.70;1.83;;;;;;;;;;8267044;28;20030;-60
2023/08/19 00:05:32;;;;;;;2.20;1.60;;;;;;;;;;8269900;28;20112;-61
2023/08/19 00:09:38;;;;;;;3.97;1.90;;;;;;;;;;8270767;28;20061;-61
2023/08/19 00:13:38;;;;;;;4.80;1.90;;;;;;;;;;8267617;28;20192;-60
2023/08/19 00:17:38;;;;;;;4.65;2.22;;;;;;;;;;8269008;28;20045;-61
2023/08/19 00:21:38;;;;;;;3.65;1.80;;;;;;;;;;8273597;28;20478;-61
2023/08/19 00:25:39;;;;;;;2.13;1.67;;;;;;;;;;8268951;28;20033;-61
2023/08/19 00:29:39;;;;;;;3.40;1.85;;;;;;;;;;8267932;28;20115;-61
2023/08/19 00:33:39;;;;;;;7.03;2.00;;;;;;;;;;8268981;28;20092;-61
2023/08/19 00:37:39;;;;;;;4.57;1.97;;;;;;;;;;8267452;28;20026;-61
2023/08/19 00:41:39;;;;;;;5.88;1.63;;;;;;;;;;8270498;28;20041;-61
2023/08/19 00:45:42;;;;;;;4.57;1.90;;;;;;;;;;8270104;28;20484;-62
2023/08/19 00:49:43;;;;;;;5.03;1.88;;;;;;;;;;8269474;28;20029;-61
2023/08/19 00:53:43;;;;;;;3.90;1.80;;;;;;;;;;8272206;28;20033;-61
2023/08/19 00:57:44;;;;;;;3.25;1.70;;;;;;;;;;8270865;28;20384;-61
2023/08/19 01:01:44;;;;;;;7.70;1.80;;;;;;;;;;8269252;28;20041;-61
2023/08/19 01:06:03;;;;;;;2.37;1.80;;;;;;;;;;8270054;28;20031;-61
2023/08/19 01:10:22;;;;;;;7.03;2.10;;;;;;;;;;8268133;28;20026;-61
2023/08/19 01:14:34;;;;;;;6.22;1.90;;;;;;;;;;8267183;28;20022;-62
2023/08/19 01:18:37;;;;;;;5.43;1.88;;;;;;;;;;8270128;28;20103;-61
2023/08/19 01:22:43;;;;;;;3.83;1.90;;;;;;;;;;8269750;28;20432;-61
2023/08/19 01:26:43;;;;;;;4.13;1.80;;;;;;;;;;8268896;28;20165;-61
2023/08/19 01:30:44;;;;;;;6.83;1.83;;;;;;;;;;8263786;28;20069;-61
2023/08/19 01:34:45;;;;;;;3.97;1.90;;;;;;;;;;8267466;28;20026;-61
2023/08/19 01:39:03;;;;;;;5.00;2.03;;;;;;;;;;8271046;28;20813;-61
2023/08/19 01:43:04;;;;;;;5.05;1.58;;;;;;;;;;8269974;28;20029;-60
2023/08/19 01:47:16;;;;;;;4.25;1.98;;;;;;;;;;8267668;28;20065;-60
2023/08/19 01:51:17;;;;;;;2.13;1.63;;;;;;;;;;8266627;28;20032;-60
2023/08/19 01:55:17;;;;;;;5.00;1.87;;;;;;;;;;8267929;28;20276;-60
2023/08/19 01:59:17;;;;;;;5.80;2.00;;;;;;;;;;8269490;28;20013;-61
2023/08/19 02:03:18;;;;;;;3.65;1.98;;;;;;;;;;8269469;28;20611;-61
2023/08/19 02:07:18;;;;;;;4.23;1.87;;;;;;;;;;8275557;28;20365;-62
2023/08/19 02:11:19;;;;;;;4.47;1.90;;;;;;;;;;8272808;28;20026;-61
2023/08/19 02:15:20;;;;;;;7.13;1.80;;;;;;;;;;8272678;28;20026;-61
2023/08/19 02:19:20;;;;;;;3.92;1.95;;;;;;;;;;8276966;28;20036;-61
2023/08/19 02:23:20;;;;;;;5.07;1.97;;;;;;;;;;8274303;28;20026;-60
2023/08/19 02:27:21;;;;;;;3.47;2.03;;;;;;;;;;8274638;28;20292;-61
2023/08/19 02:31:21;;;;;;;4.18;1.88;;;;;;;;;;8272479;28;20068;-61
2023/08/19 02:35:21;;;;;;;4.97;1.83;;;;;;;;;;8273776;28;20030;-61
2023/08/19 02:39:21;;;;;;;5.32;1.77;;;;;;;;;;8275791;28;20115;-61
2023/08/19 02:43:22;;;;;;;3.20;1.70;;;;;;;;;;8274734;28;20022;-60
2023/08/19 02:47:22;;;;;;;3.50;2.10;;;;;;;;;;8273137;28;21252;-60
2023/08/19 02:51:22;;;;;;;6.03;2.07;;;;;;;;;;8272688;28;20028;-60
2023/08/19 02:55:22;;;;;;;1.75;1.65;;;;;;;;;;8275237;28;20388;-61
2023/08/19 02:59:23;;;;;;;2.30;1.70;;;;;;;;;;8272956;28;20037;-61
2023/08/19 03:03:23;;;;;;;1.98;1.48;;;;;;;;;;8270836;28;20041;-61
2023/08/19 03:07:23;;;;;;;3.53;1.60;;;;;;;;;;8271730;28;20108;-61
2023/08/19 03:11:23;;;;;;;6.50;2.22;;;;;;;;;;8272374;28;20108;-60
2023/08/19 03:15:24;;;;;;;6.13;1.93;;;;;;;;;;8274418;28;20525;-60
2023/08/19 03:19:25;;;;;;;3.17;1.85;;;;;;;;;;8271339;28;20871;-60
2023/08/19 03:23:26;;;;;;;5.35;2.53;;;;;;;;;;8274054;28;20057;-60
2023/08/19 03:27:26;;;;;;;4.68;1.88;;;;;;;;;;8274352;28;20145;-60
2023/08/19 03:31:26;;;;;;;6.40;1.90;;;;;;;;;;8270491;28;20042;-61
2023/08/19 03:35:27;;;;;;;5.70;1.93;;;;;;;;;;8275148;28;20034;-60
2023/08/19 03:39:27;;;;;;;5.00;1.90;;;;;;;;;;8271744;28;20021;-60
2023/08/19 03:43:27;;;;;;;3.95;2.00;;;;;;;;;;8275499;28;20033;-61
2023/08/19 03:47:27;;;;;;;2.88;1.90;;;;;;;;;;8270499;28;20036;-61
2023/08/19 03:51:27;;;;;;;4.70;1.90;;;;;;;;;;8271529;28;20541;-61
2023/08/19 03:55:28;;;;;;;4.32;1.90;;;;;;;;;;8271221;28;20800;-61
2023/08/19 03:59:28;;;;;;;5.47;1.80;;;;;;;;;;8271021;28;20032;-61
2023/08/19 04:03:29;;;;;;;2.30;1.88;;;;;;;;;;8270426;28;20044;-60
2023/08/19 04:07:29;;;;;;;7.22;1.98;;;;;;;;;;8270377;28;20029;-60
2023/08/19 04:11:29;;;;;;;5.65;2.25;;;;;;;;;;8270699;28;20025;-60
2023/08/19 04:15:31;;;;;;;1.80;1.70;;;;;;;;;;8271210;28;20049;-61
2023/08/19 04:19:32;;;;;;;4.63;1.83;;;;;;;;;;8272638;28;20022;-61
2023/08/19 04:23:32;;;;;;;5.78;2.00;;;;;;;;;;8268356;28;20024;-60
2023/08/19 04:27:32;;;;;;;3.92;2.20;;;;;;;;;;8271342;28;20037;-60
2023/08/19 04:31:33;;;;;;;3.40;2.03;;;;;;;;;;8270435;28;20383;-61
2023/08/19 04:35:33;;;;;;;8.57;2.10;;;;;;;;;;8275747;28;20026;-60
2023/08/19 04:39:33;;;;;;;3.28;1.80;;;;;;;;;;8273676;28;21866;-60
2023/08/19 04:43:33;;;;;;;4.07;2.20;;;;;;;;;;8271032;28;20021;-61
2023/08/19 04:47:34;;;;;;;5.18;2.33;;;;;;;;;;8270529;28;20298;-61
2023/08/19 04:51:34;;;;;;;3.60;1.92;;;;;;;;;;8277842;28;21029;-61
2023/08/19 04:55:34;;;;;;;8.53;2.30;;;;;;;;;;8268964;28;20128;-61
2023/08/19 04:59:34;;;;;;;3.97;2.30;;;;;;;;;;8272471;28;20104;-61
2023/08/19 05:03:34;;;;;;;8.15;2.45;;;;;;;;;;8268625;28;20038;-60
2023/08/19 05:07:35;;;;;;;4.70;2.13;;;;;;;;;;8268858;28;20065;-61
2023/08/19 05:11:35;;;;;;;6.30;2.17;;;;;;;;;;8269848;28;20029;-60
2023/08/19 05:15:37;;;;;;;4.97;2.20;;;;;;;;;;8269209;28;20139;-61
2023/08/19 05:19:39;;;;;;;3.67;2.10;;;;;;;;;;8268928;28;21010;-60
2023/08/19 05:23:39;;;;;;;3.97;2.25;;;;;;;;;;8273714;28;20056;-60
2023/08/19 05:27:39;;;;;;;6.75;2.10;;;;;;;;;;8271080;28;20060;-60
2023/08/19 05:31:40;;;;;;;4.77;2.00;;;;;;;;;;8270982;28;20095;-61
2023/08/19 05:35:40;;;;;;;6.45;2.60;;;;;;;;;;8270639;28;20907;-60
2023/08/19 05:39:40;;;;;;;3.65;2.08;;;;;;;;;;8276315;28;20033;-60
2023/08/19 05:43:41;;;;;;;5.05;2.20;;;;;;;;;;8274866;28;20021;-60
2023/08/19 05:47:41;;;;;;;6.65;2.30;;;;;;;;;;8274259;28;20041;-60
2023/08/19 05:51:41;;;;;;;5.27;1.90;;;;;;;;;;8277145;28;20026;-61
2023/08/19 05:55:41;;;;;;;4.50;2.15;;;;;;;;;;8267210;28;20530;-61
2023/08/19 05:59:42;;;;;;;3.03;2.10;;;;;;;;;;8271203;28;20025;-60
2023/08/19 06:03:42;;;;;;;4.20;1.92;;;;;;;;;;8269139;28;20287;-61
2023/08/19 06:07:42;;;;;;;8.55;2.20;;;;;;;;;;8271299;28;20095;-60
2023/08/19 06:11:51;;;;;;;5.50;2.07;;;;;;;;;;8272200;28;20009;-61
2023/08/19 06:15:52;;;;;;;4.15;2.30;;;;;;;;;;8269783;28;20100;-60
2023/08/19 06:19:52;;;;;;;5.35;2.40;;;;;;;;;;8270231;28;20025;-60
2023/08/19 06:23:52;;;;;;;6.90;2.72;;;;;;;;;;8274063;28;20018;-60
2023/08/19 06:27:52;;;;;;;4.45;2.20;;;;;;;;;;8270159;28;20446;-61
2023/08/19 06:31:57;;;;;;;4.13;2.33;;;;;;;;;;8261778;28;21032;-62
2023/08/19 06:35:59;;;;;;;5.70;2.30;;;;;;;;;;8265822;28;20896;-61
2023/08/19 06:40:04;;;;;;;6.17;2.20;;;;;;;;;;8269748;28;20021;-61
2023/08/19 06:44:06;;;;;;;3.20;2.10;;;;;;;;;;8270647;28;20026;-61
2023/08/19 06:48:07;;;;;;;5.07;2.50;;;;;;;;;;8265626;28;20061;-61
2023/08/19 06:52:09;;;;;;;5.93;2.30;;;;;;;;;;8267162;28;20040;-61
2023/08/19 06:56:17;;;;;;;3.38;2.17;;;;;;;;;;8268817;28;20036;-61
2023/08/19 07:00:18;;;;;;;4.80;2.20;;;;;;;;;;8266217;28;20038;-61
2023/08/19 07:04:19;;;;;;;3.92;2.13;;;;;;;;;;8269839;28;20072;-61
2023/08/19 07:08:21;;;;;;;7.97;2.30;;;;;;;;;;8264061;28;20089;-61
2023/08/19 07:12:21;;;;;;;7.22;2.30;;;;;;;;;;8264295;28;20247;-61
2023/08/19 07:16:22;;;;;;;5.70;2.30;;;;;;;;;;8269249;28;20033;-61
2023/08/19 07:20:23;;;;;;;7.28;2.20;;;;;;;;;;8267259;28;20033;-61
2023/08/19 07:24:24;;;;;;;5.32;2.50;;;;;;;;;;8268551;28;20013;-61
2023/08/19 07:28:26;;;;;;;5.57;2.30;;;;;;;;;;8269268;28;20072;-61
2023/08/19 07:32:26;;;;;;;3.72;2.10;;;;;;;;;;8267834;28;20076;-61
2023/08/19 07:36:27;;;;;;;7.22;2.33;;;;;;;;;;8266731;28;21088;-61
2023/08/19 07:40:27;;;;;;;4.78;2.15;;;;;;;;;;8267275;28;20033;-61
2023/08/19 07:44:28;;;;;;;5.30;2.70;;;;;;;;;;8266301;28;20026;-61
2023/08/19 07:48:28;;;;;;;5.57;2.30;;;;;;;;;;8268277;28;20053;-61
2023/08/19 07:52:28;;;;;;;6.80;2.10;;;;;;;;;;8267787;28;20030;-61
2023/08/19 07:56:29;;;;;;;5.70;2.40;;;;;;;;;;8269602;28;20030;-62
2023/08/19 08:00:29;;;;;;;7.17;2.37;;;;;;;;;;8270710;28;20041;-61
2023/08/19 08:04:29;;;;;;;6.03;2.40;;;;;;;;;;8267026;28;20267;-61
2023/08/19 08:08:30;;;;;;;6.10;2.72;;;;;;;;;;8269849;28;20025;-61
2023/08/19 08:12:30;;;;;;;7.70;2.60;;;;;;;;;;8268794;28;20778;-61
2023/08/19 08:16:31;;;;;;;8.88;2.55;;;;;;;;;;8265274;28;20045;-61
2023/08/19 08:20:31;;;;;;;8.32;2.90;;;;;;;;;;8267224;28;20696;-61
2023/08/19 08:24:31;;;;;;;7.72;2.65;;;;;;;;;;8267092;28;20034;-61
2023/08/19 08:28:32;;;;;;;10.32;3.17;;;;;;;;;;8266617;28;20013;-61
2023/08/19 08:32:33;;;;;;;14.63;3.38;;;;;;;;;;8269030;28;20042;-61
2023/08/19 08:36:33;;;;;;;9.07;2.80;;;;;;;;;;8268421;28;20687;-61
2023/08/19 08:40:33;;;;;;;6.82;2.60;;;;;;;;;;8268613;28;20272;-61
2023/08/19 08:44:36;;;;;;;7.05;2.80;;;;;;;;;;8268776;28;20021;-61
2023/08/19 08:48:36;;;;;;;5.35;2.70;;;;;;;;;;8265330;28;20046;-61
2023/08/19 08:52:36;;;;;;;10.03;2.77;;;;;;;;;;8266370;28;20507;-61
2023/08/19 08:56:37;;;;;;;8.00;2.88;;;;;;;;;;8264478;28;20032;-61
2023/08/19 09:00:40;;;;;;;5.57;2.75;;;;;;;;;;8266718;28;20029;-61
2023/08/19 09:04:42;;;;;;;7.32;3.00;;;;;;;;;;8260297;28;20080;-61
2023/08/19 09:08:45;;;;;;;7.20;2.78;;;;;;;;;;8260593;28;20040;-61
2023/08/19 09:12:48;;;;;;;5.82;2.33;;;;;;;;;;8264128;28;20029;-61
2023/08/19 09:16:49;;;;;;;4.22;2.63;;;;;;;;;;8263929;28;20549;-61
2023/08/19 09:20:49;;;;;;;6.45;2.78;;;;;;;;;;8267594;28;20933;-62
2023/08/19 09:24:53;;;;;;;5.67;3.03;;;;;;;;;;8266411;28;20088;-61
2023/08/19 09:28:57;;;;;;;5.15;2.80;;;;;;;;;;8263812;28;20272;-61
2023/08/19 09:33:00;;;;;;;7.45;2.80;;;;;;;;;;8261981;28;20092;-62
2023/08/19 09:37:02;;;;;;;6.20;2.70;;;;;;;;;;8265842;28;20045;-61
2023/08/19 09:41:03;;;;;;;4.80;2.90;;;;;;;;;;8258609;28;20017;-61
2023/08/19 09:45:04;;;;;;;5.20;2.80;;;;;;;;;;8257672;28;20037;-62
2023/08/19 09:49:05;;;;;;;4.55;2.47;;;;;;;;;;8266143;28;20064;-61
2023/08/19 09:53:05;;;;;;;5.03;2.70;;;;;;;;;;8265978;28;20033;-62
2023/08/19 09:57:05;;;;;;;6.33;2.83;;;;;;;;;;8265817;28;20041;-61
2023/08/19 10:01:06;;;;;;;6.00;2.73;;;;;;;;;;8261122;28;20899;-61
2023/08/19 10:05:06;;;;;;;3.97;2.70;;;;;;;;;;8268006;28;20276;-62
2023/08/19 10:09:08;;;;;;;3.78;2.70;;;;;;;;;;8260243;28;20030;-62
2023/08/19 10:13:11;;;;;;;4.00;2.40;;;;;;;;;;8263735;28;20037;-61
2023/08/19 10:17:11;;;;;;;5.13;2.47;;;;;;;;;;8262332;28;20387;-61
2023/08/19 10:21:13;;;;;;;5.28;2.75;;;;;;;;;;8263921;28;20072;-62
2023/08/19 10:25:14;;;;;;;4.73;2.43;;;;;;;;;;8271309;28;20033;-61
2023/08/19 10:29:15;;;;;;;6.65;2.50;;;;;;;;;;8270272;28;20309;-63
2023/08/19 10:33:32;;;;;;;5.05;2.45;;;;;;;;;;8266503;28;20642;-62
2023/08/19 10:37:32;;;;;;;3.97;2.35;;;;;;;;;;8271170;28;20103;-62
2023/08/19 10:41:38;;;;;;;4.17;2.50;;;;;;;;;;8267143;28;20437;-61
2023/08/19 10:45:39;;;;;;;4.75;2.30;;;;;;;;;;8266132;28;20726;-61
2023/08/19 10:49:39;;;;;;;5.22;2.28;;;;;;;;;;8268574;28;20091;-61
2023/08/19 10:53:47;;;;;;;4.18;2.60;;;;;;;;;;8266800;28;20092;-61
2023/08/19 10:57:47;;;;;;;7.90;2.88;;;;;;;;;;8268872;28;20026;-61
2023/08/19 11:01:48;;;;;;;6.07;2.60;;;;;;;;;;8268157;28;20049;-61
2023/08/19 11:05:49;;;;;;;6.15;2.35;;;;;;;;;;8268624;28;20589;-61
2023/08/19 11:09:50;;;;;;;5.10;2.50;;;;;;;;;;8265915;28;20993;-63
2023/08/19 11:13:51;;;;;;;6.47;2.80;;;;;;;;;;8269206;28;20148;-61
2023/08/19 11:17:51;;;;;;;5.10;2.42;;;;;;;;;;8258955;28;20093;-61
2023/08/19 11:21:52;;;;;;;5.15;2.55;;;;;;;;;;8265108;28;20466;-61
2023/08/19 11:25:52;;;;;;;3.70;2.50;;;;;;;;;;8268947;28;20116;-61
2023/08/19 11:29:53;;;;;;;5.72;2.70;;;;;;;;;;8268631;28;20114;-61
2023/08/19 11:33:53;;;;;;;5.45;2.30;;;;;;;;;;8270397;28;20446;-61
2023/08/19 11:37:54;;;;;;;5.47;2.47;;;;;;;;;;8266723;28;20017;-61
2023/08/19 11:41:54;;;;;;;5.53;2.53;;;;;;;;;;8264252;28;20080;-61
2023/08/19 11:45:54;;;;;;;5.55;2.90;;;;;;;;;;8266180;28;20029;-61
2023/08/19 11:49:55;;;;;;;6.85;2.65;;;;;;;;;;8266868;28;20623;-61
2023/08/19 11:54:00;;;;;;;2.60;2.40;;;;;;;;;;8267750;28;20548;-61
2023/08/19 11:58:02;;;;;;;5.65;2.78;;;;;;;;;;8270527;28;20560;-61
2023/08/19 12:02:04;;;;;;;4.15;2.80;;;;;;;;;;8263714;28;20128;-61
2023/08/19 12:06:04;;;;;;;5.15;2.75;;;;;;;;;;8270229;28;20508;-61
2023/08/19 12:10:05;;;;;;;2.97;2.57;;;;;;;;;;8267437;28;20253;-61
2023/08/19 12:14:06;;;;;;;5.07;3.05;;;;;;;;;;8263930;28;20046;-61
2023/08/19 12:18:13;;;;;;;5.57;3.10;;;;;;;;;;8263238;28;20029;-61
2023/08/19 12:22:14;;;;;;;4.10;2.60;;;;;;;;;;8266875;28;20049;-61
2023/08/19 12:26:14;;;;;;;5.57;2.78;;;;;;;;;;8263475;28;20021;-61
2023/08/19 12:30:14;;;;;;;7.05;2.83;;;;;;;;;;8264261;28;20040;-61
2023/08/19 12:34:15;;;;;;;5.55;2.50;;;;;;;;;;8261113;28;20072;-61
2023/08/19 12:38:16;;;;;;;6.05;2.83;;;;;;;;;;8264816;28;20053;-61
2023/08/19 12:42:16;;;;;;;7.72;2.75;;;;;;;;;;8259204;28;20068;-61
2023/08/19 12:46:17;;;;;;;5.47;2.95;;;;;;;;;;8266796;28;20144;-61
2023/08/19 12:50:18;;;;;;;7.00;3.17;;;;;;;;;;8263398;28;20018;-61
2023/08/19 12:54:19;;;;;;;2.80;2.60;;;;;;;;;;8262470;28;20045;-61
2023/08/19 12:58:19;;;;;;;5.63;2.67;;;;;;;;;;8266244;28;20031;-61
2023/08/19 13:02:19;;;;;;;5.80;2.80;;;;;;;;;;8265717;28;20107;-61
2023/08/19 13:06:20;;;;;;;3.47;2.47;;;;;;;;;;8257960;28;20022;-61
2023/08/19 13:10:20;;;;;;;12.25;3.03;;;;;;;;;;8252599;28;20035;-61
2023/08/19 13:14:20;;;;;;;3.90;2.50;;;;;;;;;;8254449;28;20025;-61
2023/08/19 13:18:21;;;;;;;4.50;2.50;;;;;;;;;;8260943;28;20965;-61
2023/08/19 13:22:21;;;;;;;5.22;2.58;;;;;;;;;;8258847;28;20770;-61
2023/08/19 13:26:22;;;;;;;3.60;2.90;;;;;;;;;;8257832;28;20041;-61
2023/08/19 13:30:22;;;;;;;5.70;2.60;;;;;;;;;;8260641;28;20132;-61
2023/08/19 13:34:22;;;;;;;4.30;2.67;;;;;;;;;;8262329;28;20025;-61
2023/08/19 13:38:23;;;;;;;7.87;2.90;;;;;;;;;;8261047;28;20999;-61
2023/08/19 13:42:23;;;;;;;4.33;2.80;;;;;;;;;;8261305;28;20279;-61
2023/08/19 13:46:23;;;;;;;5.68;2.90;;;;;;;;;;8260688;28;20034;-61
2023/08/19 13:50:23;;;;;;;7.03;3.17;;;;;;;;;;8253816;28;20048;-62
2023/08/19 13:54:24;;;;;;;4.93;2.67;;;;;;;;;;8251860;28;20026;-61
2023/08/19 13:58:24;;;;;;;5.38;3.03;;;;;;;;;;8261801;28;20029;-61
2023/08/19 14:02:24;;;;;;;5.57;3.13;;;;;;;;;;8265437;28;20067;-61
2023/08/19 14:06:24;;;;;;;8.68;3.30;;;;;;;;;;8266457;28;20021;-61
2023/08/19 14:10:24;;;;;;;6.88;3.20;;;;;;;;;;8263511;28;20053;-61
2023/08/19 14:14:25;;;;;;;6.85;3.17;;;;;;;;;;8256796;28;21300;-61
2023/08/19 14:18:25;;;;;;;5.83;3.20;;;;;;;;;;8253853;28;20030;-61
2023/08/19 14:22:25;;;;;;;5.78;2.80;;;;;;;;;;8257244;28;20060;-62
2023/08/19 14:26:28;;;;;;;4.40;3.17;;;;;;;;;;8251014;28;20029;-62
2023/08/19 14:30:28;;;;;;;4.43;2.70;;;;;;;;;;8255625;28;20249;-62
2023/08/19 14:34:28;;;;;;;4.47;2.58;;;;;;;;;;8260174;28;20041;-62
2023/08/19 14:38:29;;;;;;;5.65;2.95;;;;;;;;;;8260555;28;20037;-62
2023/08/19 14:42:29;;;;;;;2.90;2.70;;;;;;;;;;8261628;28;20018;-61
2023/08/19 14:46:29;;;;;;;6.27;3.33;;;;;;;;;;8244458;28;20068;-61
2023/08/19 14:50:29;;;;;;;8.55;2.97;;;;;;;;;;8261421;28;20038;-62
2023/08/19 14:54:30;;;;;;;4.15;2.50;;;;;;;;;;8262072;28;20029;-61
2023/08/19 14:58:30;;;;;;;4.20;2.55;;;;;;;;;;8265331;28;20103;-61
2023/08/19 15:02:43;;;;;;;3.80;2.70;;;;;;;;;;8263227;28;20033;-61
2023/08/19 15:06:44;;;;;;;3.78;2.30;;;;;;;;;;8267690;28;20087;-62
2023/08/19 15:10:44;;;;;;;5.67;2.67;;;;;;;;;;8266882;28;20029;-61
2023/08/19 15:14:45;;;;;;;8.57;2.80;;;;;;;;;;8264818;28;20628;-61
2023/08/19 15:18:45;;;;;;;6.40;3.10;;;;;;;;;;8267553;28;20557;-62
2023/08/19 15:22:45;;;;;;;4.67;2.70;;;;;;;;;;8265345;28;20022;-61
2023/08/19 15:26:45;;;;;;;5.93;2.85;;;;;;;;;;8259706;28;20844;-61
2023/08/19 15:30:45;;;;;;;6.68;3.15;;;;;;;;;;8267504;28;20045;-61
2023/08/19 15:34:46;;;;;;;7.82;3.25;;;;;;;;;;8265019;28;20172;-61
2023/08/19 15:38:46;;;;;;;4.63;2.90;;;;;;;;;;8270108;28;20026;-61
2023/08/19 15:42:47;;;;;;;4.53;2.72;;;;;;;;;;8268964;28;20232;-61
2023/08/19 15:46:47;;;;;;;7.57;2.83;;;;;;;;;;8265954;28;20048;-61
2023/08/19 15:50:47;;;;;;;4.38;2.90;;;;;;;;;;8264502;28;20093;-61
2023/08/19 15:54:49;;;;;;;6.35;3.30;;;;;;;;;;8262166;28;20021;-61
2023/08/19 15:58:51;;;;;;;4.67;2.90;;;;;;;;;;8266691;28;20688;-61
2023/08/19 16:02:51;;;;;;;4.63;2.90;;;;;;;;;;8259165;28;20029;-61
2023/08/19 16:06:51;;;;;;;4.38;2.80;;;;;;;;;;8257601;28;20036;-61
2023/08/19 16:11:01;;;;;;;5.68;3.10;;;;;;;;;;8265500;28;20112;-61
2023/08/19 16:15:02;;;;;;;5.82;2.60;;;;;;;;;;8261788;28;20026;-61
2023/08/19 16:19:03;;;;;;;5.88;2.78;;;;;;;;;;8258397;28;20534;-62
2023/08/19 16:23:04;;;;;;;6.30;3.07;;;;;;;;;;8260997;28;20560;-61
2023/08/19 16:27:04;;;;;;;4.30;2.80;;;;;;;;;;8269774;28;20064;-61
2023/08/19 16:31:05;;;;;;;3.78;2.90;;;;;;;;;;8260333;28;20041;-61
2023/08/19 16:35:06;;;;;;;6.17;2.70;;;;;;;;;;8266991;28;20077;-61
2023/08/19 16:39:06;;;;;;;7.10;3.20;;;;;;;;;;8265000;28;20025;-61
2023/08/19 16:43:07;;;;;;;4.78;2.95;;;;;;;;;;8261461;28;20228;-61
2023/08/19 16:47:07;;;;;;;4.90;2.97;;;;;;;;;;8256714;28;20034;-61
2023/08/19 16:51:07;;;;;;;4.47;2.90;;;;;;;;;;8264979;28;20768;-61
2023/08/19 16:55:08;;;;;;;8.25;3.28;;;;;;;;;;8264853;28;20295;-61
2023/08/19 16:59:09;;;;;;;7.57;2.88;;;;;;;;;;8265169;28;20032;-61
2023/08/19 17:03:09;;;;;;;6.20;3.10;;;;;;;;;;8264034;28;20038;-61
2023/08/19 17:07:10;;;;;;;6.68;2.90;;;;;;;;;;8262027;28;20026;-61
2023/08/19 17:11:11;;;;;;;5.57;3.33;;;;;;;;;;8264401;28;20052;-61
2023/08/19 17:15:11;;;;;;;6.05;3.08;;;;;;;;;;8259337;28;21070;-61
2023/08/19 17:19:11;;;;;;;5.25;3.47;;;;;;;;;;8266532;28;20022;-61
2023/08/19 17:23:12;;;;;;;5.07;3.20;;;;;;;;;;8261935;28;20109;-61
2023/08/19 17:27:12;;;;;;;5.25;3.15;;;;;;;;;;8258694;28;20320;-62
2023/08/19 17:31:12;;;;;;;4.73;3.03;;;;;;;;;;8260484;28;20414;-61
2023/08/19 17:35:12;;;;;;;9.13;3.58;;;;;;;;;;8265094;28;20509;-61
2023/08/19 17:39:14;;;;;;;4.97;3.28;;;;;;;;;;8261085;28;20026;-61
2023/08/19 17:43:14;;;;;;;4.63;2.97;;;;;;;;;;8263692;28;20030;-62
2023/08/19 17:47:15;;;;;;;6.75;3.22;;;;;;;;;;8268369;28;20045;-62
2023/08/19 17:51:15;;;;;;;5.97;3.53;;;;;;;;;;8268683;28;20037;-61
2023/08/19 17:55:15;;;;;;;9.23;3.37;;;;;;;;;;8263537;28;20531;-61
2023/08/19 17:59:16;;;;;;;4.27;3.60;;;;;;;;;;8269533;28;20150;-62
2023/08/19 18:03:16;;;;;;;5.93;3.33;;;;;;;;;;8262355;28;20045;-62
2023/08/19 18:07:19;;;;;;;7.53;3.30;;;;;;;;;;8266085;28;20128;-62
2023/08/19 18:11:19;;;;;;;4.85;3.30;;;;;;;;;;8259939;28;20025;-62
2023/08/19 18:15:19;;;;;;;7.05;3.78;;;;;;;;;;8263808;28;20023;-62
2023/08/19 18:19:33;;;;;;;5.90;3.20;;;;;;;;;;8270639;28;20022;-62
2023/08/19 18:23:33;;;;;;;7.57;3.70;;;;;;;;;;8272361;28;20413;-62
2023/08/19 18:27:34;;;;;;;5.97;3.53;;;;;;;;;;8262633;28;20128;-62
2023/08/19 18:31:34;;;;;;;8.13;3.47;;;;;;;;;;8259384;28;20045;-62
2023/08/19 18:35:34;;;;;;;4.95;3.67;;;;;;;;;;8267470;28;20064;-62
2023/08/19 18:39:34;;;;;;;7.57;3.50;;;;;;;;;;8270026;28;20088;-62
2023/08/19 18:43:36;;;;;;;4.32;3.63;;;;;;;;;;8269440;28;20026;-62
2023/08/19 18:47:55;;;;;;;5.05;3.33;;;;;;;;;;8256349;28;20038;-62
2023/08/19 18:51:55;;;;;;;7.10;3.25;;;;;;;;;;8266036;28;20024;-62
2023/08/19 18:55:56;;;;;;;6.27;3.70;;;;;;;;;;8267496;28;20033;-62
2023/08/19 18:59:56;;;;;;;7.87;3.40;;;;;;;;;;8260226;28;20396;-62
2023/08/19 19:03:58;;;;;;;5.88;3.38;;;;;;;;;;8260691;28;20711;-62
2023/08/19 19:07:58;;;;;;;5.72;3.20;;;;;;;;;;8262579;28;20113;-62
2023/08/19 19:11:58;;;;;;;6.55;3.83;;;;;;;;;;8262539;28;20053;-62
2023/08/19 19:15:58;;;;;;;4.60;3.37;;;;;;;;;;8261185;28;20076;-62
2023/08/19 19:19:59;;;;;;;3.83;3.13;;;;;;;;;;8262552;28;20417;-61
2023/08/19 19:24:01;;;;;;;5.63;3.60;;;;;;;;;;8268737;28;20824;-61
2023/08/19 19:28:01;;;;;;;4.43;3.17;;;;;;;;;;8265210;28;20034;-61
2023/08/19 19:32:01;;;;;;;4.85;3.25;;;;;;;;;;8261585;28;20560;-61
2023/08/19 19:36:01;;;;;;;4.13;3.20;;;;;;;;;;8269655;28;20965;-61
2023/08/19 19:40:02;;;;;;;3.20;2.90;;;;;;;;;;8264651;28;20017;-61
2023/08/19 19:44:03;;;;;;;5.60;3.03;;;;;;;;;;8268601;28;20112;-61
2023/08/19 19:48:03;;;;;;;3.63;2.60;;;;;;;;;;8264482;28;20895;-61
2023/08/19 19:52:03;;;;;;;4.60;2.83;;;;;;;;;;8267855;28;20026;-61
2023/08/19 19:56:04;;;;;;;5.43;3.10;;;;;;;;;;8260903;28;20820;-61
2023/08/19 20:00:05;;;;;;;6.10;3.67;;;;;;;;;;8259482;28;20508;-62
2023/08/19 20:04:06;;;;;;;7.47;3.45;;;;;;;;;;8258599;28;20470;-61
2023/08/19 20:08:06;;;;;;;5.15;3.70;;;;;;;;;;8260643;28;20026;-61
2023/08/19 20:12:06;;;;;;;7.32;3.90;;;;;;;;;;8254882;28;20051;-61
2023/08/19 20:16:07;;;;;;;4.47;3.30;;;;;;;;;;8257627;28;20042;-61
2023/08/19 20:20:07;;;;;;;6.03;3.38;;;;;;;;;;8258915;28;20520;-61
2023/08/19 20:24:08;;;;;;;4.97;3.10;;;;;;;;;;8259112;28;20040;-60
2023/08/19 20:28:08;;;;;;;6.70;3.40;;;;;;;;;;8257478;28;20447;-61
2023/08/19 20:32:10;;;;;;;5.90;3.50;;;;;;;;;;8259437;28;20377;-60
2023/08/19 20:36:10;;;;;;;6.85;3.55;;;;;;;;;;8256127;28;20022;-61
2023/08/19 20:40:10;;;;;;;6.78;3.45;;;;;;;;;;8260048;28;20022;-61
2023/08/19 20:44:11;;;;;;;4.53;3.25;;;;;;;;;;8259210;28;20064;-60
2023/08/19 20:48:11;;;;;;;3.33;3.00;;;;;;;;;;8255594;28;20793;-60
2023/08/19 20:52:12;;;;;;;5.28;3.13;;;;;;;;;;8263071;28;20036;-60
2023/08/19 20:56:12;;;;;;;3.92;3.13;;;;;;;;;;8256160;28;20025;-61
2023/08/19 21:00:12;;;;;;;3.92;3.22;;;;;;;;;;8258125;28;20468;-61
2023/08/19 21:04:12;;;;;;;9.20;3.27;;;;;;;;;;8260196;28;20056;-61
2023/08/19 21:08:12;;;;;;;8.73;3.88;;;;;;;;;;8251352;28;20441;-61
2023/08/19 21:12:13;;;;;;;4.03;3.28;;;;;;;;;;8258015;28;20524;-60
2023/08/19 21:16:13;;;;;;;5.93;3.03;;;;;;;;;;8254882;28;20069;-61
2023/08/19 21:20:14;;;;;;;3.63;3.30;;;;;;;;;;8256345;28;20046;-62
2023/08/19 21:24:14;;;;;;;6.13;3.45;;;;;;;;;;8254589;28;20033;-61
2023/08/19 21:28:15;;;;;;;3.95;3.00;;;;;;;;;;8253566;28;20018;-61
2023/08/19 21:32:15;;;;;;;7.00;3.40;;;;;;;;;;8256569;28;20616;-61
2023/08/19 21:36:15;;;;;;;7.07;3.58;;;;;;;;;;8254649;28;20101;-61
2023/08/19 21:40:15;;;;;;;5.60;3.38;;;;;;;;;;8255417;28;20700;-61
2023/08/19 21:44:16;;;;;;;4.97;3.30;;;;;;;;;;8258088;28;20057;-61
2023/08/19 21:48:17;;;;;;;4.80;3.53;;;;;;;;;;8254040;28;20045;-61
2023/08/19 21:52:17;;;;;;;4.55;3.35;;;;;;;;;;8254050;28;20103;-61
2023/08/19 21:56:18;;;;;;;7.00;3.40;;;;;;;;;;8254743;28;20446;-61
2023/08/19 22:00:18;;;;;;;6.82;3.80;;;;;;;;;;8256394;28;20582;-61
2023/08/19 22:04:18;;;;;;;7.55;3.67;;;;;;;;;;8253166;28;20045;-61
2023/08/19 22:08:20;;;;;;;5.13;3.77;;;;;;;;;;8259159;28;20056;-61
2023/08/19 22:12:20;;;;;;;6.97;3.67;;;;;;;;;;8256227;28;20440;-61
2023/08/19 22:16:21;;;;;;;6.73;3.60;;;;;;;;;;8254640;28;20068;-60
2023/08/19 22:20:21;;;;;;;8.63;3.75;;;;;;;;;;8263404;28;20286;-61
2023/08/19 22:24:21;;;;;;;5.47;3.80;;;;;;;;;;8262095;28;20496;-61
2023/08/19 22:28:21;;;;;;;7.32;3.92;;;;;;;;;;8262751;28;20018;-62
2023/08/19 22:32:22;;;;;;;10.45;3.78;;;;;;;;;;8260435;28;20791;-61
2023/08/19 22:36:22;;;;;;;5.78;3.83;;;;;;;;;;8261400;28;20029;-61
2023/08/19 22:40:22;;;;;;;6.47;3.83;;;;;;;;;;8262672;28;20036;-61
2023/08/19 22:44:22;;;;;;;7.10;4.00;;;;;;;;;;8258804;28;20497;-61
2023/08/19 22:48:23;;;;;;;5.55;4.30;;;;;;;;;;8258872;28;20048;-61
2023/08/19 22:52:24;;;;;;;5.70;4.00;;;;;;;;;;8263394;28;21101;-60
2023/08/19 22:56:25;;;;;;;5.50;3.83;;;;;;;;;;8264087;28;20053;-60
2023/08/19 23:00:25;;;;;;;9.13;4.30;;;;;;;;;;8258036;28;20651;-60
2023/08/19 23:04:25;;;;;;;5.70;3.50;;;;;;;;;;8260719;28;20458;-61
2023/08/19 23:08:26;;;;;;;3.83;3.40;;;;;;;;;;8259813;28;20025;-61
2023/08/19 23:12:26;;;;;;;5.93;3.80;;;;;;;;;;8260917;28;20018;-62
2023/08/19 23:16:27;;;;;;;5.85;3.83;;;;;;;;;;8260650;28;20499;-61
2023/08/19 23:20:27;;;;;;;4.90;3.92;;;;;;;;;;8259308;28;20120;-61
2023/08/19 23:24:27;;;;;;;6.32;4.60;;;;;;;;;;8259163;28;20489;-61
2023/08/19 23:28:27;;;;;;;7.45;4.40;;;;;;;;;;8257899;28;20045;-61
2023/08/19 23:32:27;;;;;;;13.52;4.65;;;;;;;;;;8254435;28;20431;-62
2023/08/19 23:36:29;;;;;;;12.40;4.45;;;;;;;;;;8256568;28;20574;-61
2023/08/19 23:40:30;;;;;;;6.95;4.50;;;;;;;;;;8257098;28;20409;-61
2023/08/19 23:44:30;;;;;;;8.57;4.60;;;;;;;;;;8260716;28;20474;-60
2023/08/19 23:48:30;;;;;;;6.88;4.47;;;;;;;;;;8258482;28;20038;-61
2023/08/19 23:52:33;;;;;;;5.37;4.10;;;;;;;;;;8257696;28;20018;-61
2023/08/19 23:56:33;;;;;;;6.73;4.40;;;;;;;;;;8258497;28;20295;-61
